Rechercher aéroport 
image banner adimage banner adimage banner ad
image banner ad

CL26 - Omninet West Valley Lp

Situé à Chatsworth, United States

ICAO - CL26, IATA -

Données fournies par Airmate  

Information générale

Coordonnées: N34°14'19" W118°33'57"
Élévation : 1018 feet MSL.
Variation magnétique : 14° East
Voir autres Aéroports à California

Données opérationnelles

Special qualification required
Heure actuelle UTC:
Heure actuelle locale:
Météo à : KVNY - Van Nuys ( 8 km )
METAR: KVNY 212251Z 17010KT 10SM CLR 38/03 A3002 RMK AO2 SLP155 T03780028
TAF: KVNY 211731Z 2118/2218 00000KT P6SM SKC FM212000 14010KT P6SM SKC FM220000 29008KT P6SM SKC FM220300 VRB03KT P6SM SKC
Voir NOTAMs / SUP AIP / TFR affectant cet aéroport [VIEW]
Fréquences de communication: [VIEW]

Pistes:

Coordonnées de l'aéroport

Adresse: Chatsworth United States

Vue satellite de CL26